createdAt,value
2019-05-29T00:02:21.439Z,14.10
2019-05-29T00:04:52.653Z,14.20
2019-05-29T00:07:23.399Z,14.20
2019-05-29T00:09:55.075Z,14.20
2019-05-29T00:12:25.839Z,14.20
2019-05-29T00:14:57.189Z,14.30
2019-05-29T00:17:28.163Z,14.20
2019-05-29T00:19:59.135Z,14.20
2019-05-29T00:22:30.124Z,14.10
2019-05-29T00:25:01.161Z,14.10
2019-05-29T00:27:31.954Z,14.10
2019-05-29T00:30:03.158Z,14.20
2019-05-29T00:32:34.393Z,14.20
2019-05-29T00:35:05.969Z,14.20
2019-05-29T00:37:36.695Z,14.20
2019-05-29T00:40:08.973Z,14.10
2019-05-29T00:42:39.893Z,14.20
2019-05-29T00:45:11.501Z,14.20
2019-05-29T00:47:42.858Z,14.20
2019-05-29T00:50:14.453Z,14.20
2019-05-29T00:52:45.673Z,14.10
2019-05-29T00:55:17.189Z,14.10
2019-05-29T00:57:48.111Z,14.10
2019-05-29T01:00:19.634Z,14.10
2019-05-29T01:02:50.406Z,14.10
2019-05-29T01:05:21.533Z,14.10
2019-05-29T01:07:52.674Z,14.10
2019-05-29T01:10:24.010Z,14.00
2019-05-29T01:12:54.981Z,14.00
2019-05-29T01:15:25.794Z,14.00
2019-05-29T01:17:56.943Z,14.00
2019-05-29T01:20:27.679Z,13.90
2019-05-29T01:22:58.796Z,13.90
2019-05-29T01:25:30.269Z,13.90
2019-05-29T01:28:01.004Z,14.00
2019-05-29T01:30:32.054Z,14.00
2019-05-29T01:33:02.708Z,14.00
2019-05-29T01:35:33.704Z,13.90
2019-05-29T01:38:04.614Z,13.90
2019-05-29T01:40:53.708Z,13.90
2019-05-29T01:43:24.778Z,13.90
2019-05-29T01:45:55.613Z,14.00
2019-05-29T01:48:27.751Z,14.00
2019-05-29T01:50:59.008Z,14.00
2019-05-29T01:53:30.089Z,13.90
2019-05-29T01:56:01.189Z,13.90
2019-05-29T01:58:32.183Z,13.90
2019-05-29T02:01:03.133Z,13.90
2019-05-29T02:03:34.158Z,13.90
2019-05-29T02:06:05.143Z,14.00
2019-05-29T02:08:35.973Z,14.00
2019-05-29T02:11:07.015Z,13.90
2019-05-29T02:13:37.744Z,13.80
2019-05-29T02:16:08.918Z,13.70
2019-05-29T02:18:39.874Z,13.70
2019-05-29T02:21:10.889Z,13.60
2019-05-29T02:23:41.964Z,13.60
2019-05-29T02:26:12.853Z,13.60
2019-05-29T02:28:43.989Z,13.60
2019-05-29T02:31:17.462Z,13.60
2019-05-29T02:33:51.564Z,13.60
2019-05-29T02:36:24.376Z,13.60
2019-05-29T02:38:55.415Z,13.60
2019-05-29T02:41:28.458Z,13.60
2019-05-29T02:43:59.034Z,13.60
2019-05-29T02:46:30.180Z,13.60
2019-05-29T02:49:01.614Z,13.60
2019-05-29T02:51:33.016Z,13.50
2019-05-29T02:54:04.254Z,13.50
2019-05-29T02:56:35.019Z,13.50
2019-05-29T02:59:06.525Z,13.50
2019-05-29T03:01:37.360Z,13.40
2019-05-29T03:04:08.364Z,13.50
2019-05-29T03:06:39.622Z,13.40
2019-05-29T03:09:10.362Z,13.50
2019-05-29T03:11:41.288Z,13.50
2019-05-29T03:14:12.365Z,13.50
2019-05-29T03:16:43.599Z,13.50
2019-05-29T03:19:14.599Z,13.50
2019-05-29T03:21:45.309Z,13.50
2019-05-29T03:24:16.439Z,13.60
2019-05-29T03:26:47.889Z,13.50
2019-05-29T03:29:19.494Z,13.50
2019-05-29T03:31:50.424Z,13.50
2019-05-29T03:34:21.495Z,13.50
2019-05-29T03:36:52.676Z,13.40
2019-05-29T03:39:23.473Z,13.50
2019-05-29T03:41:54.334Z,13.40
2019-05-29T03:44:26.331Z,13.40
2019-05-29T03:46:57.222Z,13.40
2019-05-29T03:49:29.148Z,13.40
2019-05-29T03:52:00.448Z,13.50
2019-05-29T03:54:33.769Z,13.50
2019-05-29T03:57:04.348Z,13.40
2019-05-29T03:59:37.287Z,13.40
2019-05-29T04:02:07.928Z,13.30
2019-05-29T04:04:38.957Z,13.40
2019-05-29T04:07:10.201Z,13.40
2019-05-29T04:09:41.352Z,13.30
2019-05-29T04:12:12.491Z,13.30
2019-05-29T04:14:43.810Z,13.40
2019-05-29T04:17:16.093Z,13.40
2019-05-29T04:19:47.495Z,13.40
2019-05-29T04:22:21.404Z,13.50
2019-05-29T04:24:54.509Z,13.50
2019-05-29T04:27:30.098Z,13.50
2019-05-29T04:30:03.656Z,13.60
2019-05-29T04:32:34.903Z,13.50
2019-05-29T04:35:07.041Z,13.60
2019-05-29T04:37:39.850Z,13.60
2019-05-29T04:40:11.183Z,13.60
2019-05-29T04:42:41.940Z,13.60
2019-05-29T04:45:12.696Z,13.60
2019-05-29T04:47:43.559Z,13.60
2019-05-29T04:50:14.430Z,13.60
2019-05-29T04:52:45.124Z,13.60
2019-05-29T04:55:15.788Z,13.60
2019-05-29T04:57:46.753Z,13.60
2019-05-29T05:00:17.633Z,13.60
2019-05-29T05:02:48.423Z,13.60
2019-05-29T05:05:19.804Z,13.70
2019-05-29T05:07:50.623Z,13.70
2019-05-29T05:10:37.879Z,13.80
2019-05-29T05:13:09.075Z,13.80
2019-05-29T05:15:40.102Z,13.80
2019-05-29T05:18:11.014Z,13.80
2019-05-29T05:20:41.733Z,13.80
2019-05-29T05:23:12.668Z,13.90
2019-05-29T05:25:43.419Z,13.90
2019-05-29T05:28:14.583Z,13.90
2019-05-29T05:30:45.976Z,14.00
2019-05-29T05:33:17.029Z,14.00
2019-05-29T05:35:48.211Z,14.10
2019-05-29T05:38:19.321Z,14.10
2019-05-29T05:40:50.106Z,14.20
2019-05-29T05:43:24.462Z,14.20
2019-05-29T05:45:54.218Z,14.30
2019-05-29T05:48:25.083Z,14.40
2019-05-29T05:50:55.804Z,14.40
2019-05-29T05:53:27.216Z,14.30
2019-05-29T05:55:58.313Z,14.50
2019-05-29T05:58:29.094Z,14.60
2019-05-29T06:01:00.439Z,14.50
2019-05-29T06:03:31.838Z,14.50
2019-05-29T06:06:02.834Z,14.60
2019-05-29T06:08:34.301Z,14.70
2019-05-29T06:11:05.418Z,14.90
2019-05-29T06:13:36.362Z,15.00
2019-05-29T06:16:07.238Z,15.20
2019-05-29T06:18:38.519Z,15.00
2019-05-29T06:21:09.709Z,14.90
2019-05-29T06:23:41.147Z,14.90
2019-05-29T06:26:12.309Z,15.10
2019-05-29T06:28:43.453Z,15.30
2019-05-29T06:31:14.924Z,15.40
2019-05-29T06:33:45.830Z,15.50
2019-05-29T06:36:16.981Z,15.60
2019-05-29T06:38:48.135Z,15.60
2019-05-29T06:41:19.246Z,15.50
2019-05-29T06:43:50.394Z,15.70
2019-05-29T06:46:21.540Z,15.80
2019-05-29T06:48:59.639Z,15.80
2019-05-29T06:51:26.083Z,15.80
2019-05-29T06:53:57.363Z,15.90
2019-05-29T06:56:28.518Z,15.80
2019-05-29T06:58:59.688Z,16.00
2019-05-29T07:01:30.884Z,16.20
2019-05-29T07:04:11.887Z,16.20
2019-05-29T07:06:34.388Z,16.40
2019-05-29T07:09:06.284Z,16.50
2019-05-29T07:11:37.488Z,16.40
2019-05-29T07:14:08.630Z,16.50
2019-05-29T07:16:45.187Z,16.60
2019-05-29T07:19:47.230Z,16.70
2019-05-29T07:21:45.351Z,16.80
2019-05-29T07:24:16.408Z,16.50
2019-05-29T07:26:47.585Z,16.60
2019-05-29T07:29:18.763Z,16.90
2019-05-29T07:31:49.803Z,17.10
2019-05-29T07:46:07.498Z,17.10
2019-05-29T07:48:58.567Z,17.10
2019-05-29T07:51:30.173Z,17.30
2019-05-29T07:54:01.287Z,17.50
2019-05-29T07:56:32.863Z,17.50
2019-05-29T07:59:04.500Z,17.30
2019-05-29T08:01:35.329Z,17.30
2019-05-29T08:04:06.573Z,17.20
2019-05-29T08:06:37.463Z,17.30
2019-05-29T08:09:09.967Z,17.20
2019-05-29T08:11:41.673Z,17.20
2019-05-29T08:14:12.855Z,17.20
2019-05-29T08:16:44.087Z,17.30
2019-05-29T08:19:15.015Z,17.60
2019-05-29T08:21:46.545Z,17.80
2019-05-29T08:24:17.843Z,17.80
2019-05-29T08:26:48.985Z,17.60
2019-05-29T08:29:20.251Z,17.50
2019-05-29T08:31:51.383Z,17.60
2019-05-29T08:34:22.729Z,17.60
2019-05-29T08:37:05.830Z,17.50
2019-05-29T08:39:35.926Z,17.30
2019-05-29T08:42:21.021Z,17.40
2019-05-29T08:44:32.120Z,17.30
2019-05-29T08:47:10.118Z,17.30
2019-05-29T08:49:35.655Z,17.20
2019-05-29T08:52:12.007Z,17.10
2019-05-29T08:54:39.273Z,17.10
2019-05-29T08:57:10.575Z,17.30
2019-05-29T08:59:42.239Z,17.30
2019-05-29T09:02:13.976Z,17.50
2019-05-29T09:04:47.752Z,17.60
2019-05-29T09:07:17.799Z,17.80
2019-05-29T09:09:49.186Z,18.10
2019-05-29T09:12:20.284Z,18.10
2019-05-29T09:14:51.760Z,18.20
2019-05-29T09:17:24.230Z,18.10
2019-05-29T09:19:55.734Z,18.00
2019-05-29T09:22:26.848Z,18.00
2019-05-29T09:24:58.029Z,17.90
2019-05-29T09:27:29.368Z,18.00
2019-05-29T09:30:00.694Z,17.90
2019-05-29T09:32:48.291Z,18.30
2019-05-29T09:35:04.135Z,18.40
2019-05-29T09:37:35.199Z,18.60
2019-05-29T09:40:08.894Z,18.50
2019-05-29T09:42:39.964Z,18.60
2019-05-29T09:45:11.254Z,18.50
2019-05-29T09:47:42.129Z,18.60
2019-05-29T09:50:13.799Z,18.70
2019-05-29T09:52:44.997Z,18.70
2019-05-29T09:55:16.661Z,18.80
2019-05-29T09:57:47.787Z,19.10
2019-05-29T10:00:19.270Z,19.20
2019-05-29T10:02:50.382Z,19.00
2019-05-29T10:05:21.617Z,18.90
2019-05-29T10:07:54.475Z,19.20
2019-05-29T10:10:26.113Z,19.50
2019-05-29T10:12:58.124Z,19.70
2019-05-29T10:15:29.539Z,19.60
2019-05-29T10:18:00.864Z,19.50
2019-05-29T10:20:31.920Z,19.50
2019-05-29T10:23:03.170Z,19.50
2019-05-29T10:25:34.700Z,19.50
2019-05-29T10:28:06.204Z,19.60
2019-05-29T10:30:37.495Z,19.60
2019-05-29T10:33:08.836Z,19.80
2019-05-29T10:35:40.014Z,19.90
2019-05-29T10:38:11.242Z,19.70
2019-05-29T10:40:50.083Z,19.70
2019-05-29T10:43:30.870Z,19.80
2019-05-29T10:45:49.804Z,19.50
2019-05-29T10:48:21.230Z,19.50
2019-05-29T10:50:54.143Z,19.70
2019-05-29T10:53:25.284Z,19.80
2019-05-29T10:55:56.803Z,20.10
2019-05-29T10:58:27.864Z,20.20
2019-05-29T11:00:58.930Z,20.20
2019-05-29T11:03:30.260Z,20.30
2019-05-29T11:06:01.309Z,21.00
2019-05-29T11:08:32.424Z,20.80
2019-05-29T11:11:03.946Z,20.80
2019-05-29T11:13:35.260Z,20.90
2019-05-29T11:16:06.627Z,20.90
2019-05-29T11:18:37.989Z,20.90
2019-05-29T11:21:09.073Z,21.00
2019-05-29T11:23:40.341Z,21.20
2019-05-29T11:26:11.719Z,21.30
2019-05-29T11:28:43.091Z,21.20
2019-05-29T11:31:14.199Z,21.20
2019-05-29T11:33:45.375Z,20.70
2019-05-29T11:36:16.669Z,20.70
2019-05-29T11:38:48.009Z,20.70
2019-05-29T11:41:26.249Z,20.70
2019-05-29T11:43:52.704Z,20.40
2019-05-29T11:46:23.560Z,20.50
2019-05-29T11:48:55.275Z,20.40
2019-05-29T11:51:26.631Z,20.50
2019-05-29T11:53:59.462Z,20.50
2019-05-29T11:56:30.554Z,20.60
2019-05-29T11:59:01.692Z,20.50
2019-05-29T12:01:49.018Z,20.80
2019-05-29T12:04:22.900Z,21.10
2019-05-29T12:06:37.974Z,21.20
2019-05-29T12:09:11.417Z,21.30
2019-05-29T12:11:42.568Z,21.50
2019-05-29T12:14:14.141Z,21.40
2019-05-29T12:16:44.909Z,21.50
2019-05-29T12:19:15.801Z,21.30
2019-05-29T12:21:47.026Z,21.80
2019-05-29T12:24:18.314Z,21.60
2019-05-29T12:26:49.646Z,21.30
2019-05-29T12:29:20.923Z,21.40
2019-05-29T12:31:52.899Z,21.30
2019-05-29T12:34:24.314Z,20.90
2019-05-29T12:36:55.509Z,21.00
2019-05-29T12:39:26.487Z,21.40
2019-05-29T12:41:57.699Z,20.90
2019-05-29T12:44:28.424Z,21.20
2019-05-29T12:46:59.944Z,21.20
2019-05-29T12:49:31.249Z,21.20
2019-05-29T12:52:06.626Z,21.00
2019-05-29T12:54:35.468Z,20.90
2019-05-29T12:57:06.557Z,21.00
2019-05-29T12:59:39.905Z,20.70
2019-05-29T13:02:11.271Z,20.70
2019-05-29T13:05:06.027Z,20.80
2019-05-29T13:07:15.494Z,20.90
2019-05-29T13:09:46.427Z,20.60
2019-05-29T13:12:17.834Z,20.80
2019-05-29T13:14:49.279Z,21.10
2019-05-29T13:17:20.451Z,21.40
2019-05-29T13:19:51.269Z,21.90
2019-05-29T13:22:22.154Z,22.90
2019-05-29T13:24:53.580Z,23.30
2019-05-29T13:27:24.424Z,22.70
2019-05-29T13:29:58.147Z,22.50
2019-05-29T13:32:28.557Z,22.20
2019-05-29T13:35:00.397Z,22.20
2019-05-29T13:37:31.744Z,22.40
2019-05-29T13:40:05.485Z,22.60
2019-05-29T13:42:36.129Z,22.30
2019-05-29T13:45:17.824Z,22.60
2019-05-29T13:47:40.865Z,22.80
2019-05-29T13:50:12.923Z,23.10
2019-05-29T13:52:44.264Z,22.90
2019-05-29T13:55:16.579Z,22.50
2019-05-29T13:57:47.509Z,22.00
2019-05-29T14:00:33.405Z,21.90
2019-05-29T14:02:52.175Z,21.90
2019-05-29T14:05:23.043Z,21.70
2019-05-29T14:07:54.195Z,21.30
2019-05-29T14:10:25.264Z,21.10
2019-05-29T14:12:56.224Z,21.00
2019-05-29T14:15:27.568Z,20.90
2019-05-29T14:18:00.573Z,20.80
2019-05-29T14:20:31.620Z,20.70
2019-05-29T14:23:03.385Z,20.60
2019-05-29T14:25:34.687Z,20.40
2019-05-29T14:28:06.845Z,20.60
2019-05-29T14:30:38.147Z,20.90
2019-05-29T14:33:12.914Z,20.80
2019-05-29T14:35:42.414Z,20.90
2019-05-29T14:38:15.194Z,20.80
2019-05-29T14:40:46.829Z,20.80
2019-05-29T14:43:18.365Z,20.50
2019-05-29T14:45:50.009Z,20.30
2019-05-29T14:48:21.104Z,20.50
2019-05-29T14:50:52.032Z,20.30
2019-05-29T14:53:23.664Z,20.20
2019-05-29T14:55:54.971Z,20.40
2019-05-29T14:58:26.273Z,20.10
2019-05-29T15:00:57.565Z,19.70
2019-05-29T15:03:29.059Z,19.80
2019-05-29T15:05:59.894Z,19.80
2019-05-29T15:08:30.964Z,19.80
2019-05-29T15:11:02.256Z,20.00
2019-05-29T15:13:33.625Z,19.80
2019-05-29T15:16:04.636Z,19.50
2019-05-29T15:18:35.969Z,19.60
2019-05-29T15:21:07.572Z,19.40
2019-05-29T15:23:38.824Z,19.50
2019-05-29T15:26:09.914Z,19.60
2019-05-29T15:28:41.249Z,19.60
2019-05-29T15:31:12.530Z,19.50
2019-05-29T15:33:44.060Z,19.50
2019-05-29T15:36:16.849Z,19.50
2019-05-29T15:38:48.531Z,19.40
2019-05-29T15:41:19.684Z,19.10
2019-05-29T15:43:51.096Z,19.00
2019-05-29T15:46:22.453Z,19.00
2019-05-29T15:48:53.510Z,19.30
2019-05-29T15:51:24.530Z,19.50
2019-05-29T15:53:55.404Z,19.50
2019-05-29T15:56:28.156Z,19.50
2019-05-29T15:58:58.779Z,19.50
2019-05-29T16:01:30.259Z,19.50
2019-05-29T16:04:01.374Z,19.40
2019-05-29T16:06:32.894Z,19.30
2019-05-29T16:09:04.185Z,19.20
2019-05-29T16:11:35.464Z,19.30
2019-05-29T16:14:06.605Z,19.10
2019-05-29T16:16:37.884Z,19.10
2019-05-29T16:19:10.007Z,19.10
2019-05-29T16:21:43.674Z,19.30
2019-05-29T16:24:15.054Z,19.00
2019-05-29T16:26:46.263Z,19.10
2019-05-29T16:29:19.513Z,19.10
2019-05-29T16:31:50.064Z,19.10
2019-05-29T16:34:21.945Z,19.00
2019-05-29T16:36:53.649Z,18.90
2019-05-29T16:39:24.739Z,18.90
2019-05-29T16:41:55.634Z,19.00
2019-05-29T16:44:29.494Z,18.90
2019-05-29T16:46:59.304Z,19.10
2019-05-29T16:49:30.175Z,19.10
2019-05-29T16:52:01.144Z,19.20
2019-05-29T16:54:32.359Z,19.50
2019-05-29T16:57:03.865Z,19.50
2019-05-29T16:59:34.814Z,19.40
2019-05-29T17:02:05.719Z,19.30
2019-05-29T17:04:36.674Z,19.20
2019-05-29T17:07:07.799Z,19.10
2019-05-29T17:09:38.879Z,19.20
2019-05-29T17:12:09.759Z,19.20
2019-05-29T17:14:40.788Z,19.00
2019-05-29T17:17:12.179Z,19.10
2019-05-29T17:19:43.508Z,18.90
2019-05-29T17:22:14.640Z,18.70
2019-05-29T17:24:45.980Z,18.80
2019-05-29T17:27:17.184Z,18.70
2019-05-29T17:29:48.663Z,18.80
2019-05-29T17:32:21.048Z,19.00
2019-05-29T17:34:52.844Z,18.90
2019-05-29T17:37:25.199Z,18.90
2019-05-29T17:39:56.544Z,18.90
2019-05-29T17:42:47.759Z,18.80
2019-05-29T17:45:22.635Z,18.70
2019-05-29T17:47:52.580Z,18.50
2019-05-29T17:50:25.247Z,18.60
2019-05-29T17:52:56.686Z,18.60
2019-05-29T17:55:28.448Z,18.60
2019-05-29T17:57:59.460Z,18.60
2019-05-29T18:00:30.574Z,18.60
2019-05-29T18:03:01.610Z,18.50
2019-05-29T18:05:32.671Z,18.50
2019-05-29T18:08:03.614Z,18.50
2019-05-29T18:10:34.821Z,18.60
2019-05-29T18:13:05.594Z,18.50
2019-05-29T18:15:36.419Z,18.40
2019-05-29T18:18:07.699Z,18.70
2019-05-29T18:20:38.616Z,18.70
2019-05-29T18:23:09.436Z,18.70
2019-05-29T18:25:41.029Z,19.80
2019-05-29T18:28:12.589Z,21.20
2019-05-29T18:30:44.180Z,21.50
2019-05-29T18:33:15.787Z,22.30
2019-05-29T18:35:47.289Z,22.60
2019-05-29T18:38:20.135Z,22.90
2019-05-29T18:40:51.464Z,22.70
2019-05-29T18:43:22.825Z,22.30
2019-05-29T18:45:53.700Z,21.60
2019-05-29T18:48:25.344Z,21.80
2019-05-29T18:50:56.354Z,21.70
2019-05-29T18:53:28.805Z,21.00
2019-05-29T18:56:00.043Z,20.20
2019-05-29T18:58:32.344Z,19.60
2019-05-29T19:01:03.735Z,19.20
2019-05-29T19:03:35.334Z,18.90
2019-05-29T19:06:07.014Z,18.50
2019-05-29T19:08:38.244Z,18.30
2019-05-29T19:11:10.001Z,18.20
2019-05-29T19:13:41.515Z,18.00
2019-05-29T19:16:12.819Z,17.90
2019-05-29T19:18:44.459Z,17.80
2019-05-29T19:21:15.867Z,17.80
2019-05-29T19:23:46.934Z,17.70
2019-05-29T19:26:18.649Z,17.60
2019-05-29T19:28:49.829Z,17.50
2019-05-29T19:31:21.384Z,17.40
2019-05-29T19:33:52.515Z,17.20
2019-05-29T19:36:24.099Z,17.10
2019-05-29T19:38:55.330Z,17.20
2019-05-29T19:41:26.512Z,17.10
2019-05-29T19:43:58.261Z,17.10
2019-05-29T19:46:30.679Z,17.10
2019-05-29T19:49:02.124Z,17.10
2019-05-29T19:51:35.343Z,17.10
2019-05-29T19:54:07.401Z,17.10
2019-05-29T19:56:38.935Z,17.00
2019-05-29T19:59:09.864Z,17.00
2019-05-29T20:01:41.321Z,16.90
2019-05-29T20:04:12.917Z,16.90
2019-05-29T20:06:44.020Z,16.90
2019-05-29T20:09:15.399Z,16.90
2019-05-29T20:11:46.280Z,16.80
2019-05-29T20:14:17.276Z,16.80
2019-05-29T20:16:48.629Z,16.70
2019-05-29T20:19:19.650Z,16.70
2019-05-29T20:21:50.951Z,16.70
2019-05-29T20:24:22.138Z,16.70
2019-05-29T20:26:53.591Z,16.60
2019-05-29T20:29:24.509Z,16.60
2019-05-29T20:31:56.063Z,16.60
2019-05-29T20:34:27.515Z,16.60
2019-05-29T20:36:58.394Z,16.50
2019-05-29T20:39:30.195Z,16.50
2019-05-29T20:42:01.894Z,16.40
2019-05-29T20:44:34.529Z,16.40
2019-05-29T20:47:05.985Z,16.40
2019-05-29T20:49:38.040Z,16.40
2019-05-29T20:52:08.974Z,16.40
2019-05-29T20:54:40.290Z,16.40
2019-05-29T20:57:12.184Z,16.30
2019-05-29T20:59:43.895Z,16.30
2019-05-29T21:02:15.367Z,16.30
2019-05-29T21:04:46.779Z,16.30
2019-05-29T21:07:17.715Z,16.30
2019-05-29T21:09:48.800Z,16.30
2019-05-29T21:12:19.843Z,16.30
2019-05-29T21:14:50.964Z,16.20
2019-05-29T21:17:22.144Z,16.20
2019-05-29T21:19:53.464Z,16.20
2019-05-29T21:22:24.619Z,16.10
2019-05-29T21:25:03.197Z,16.10
2019-05-29T21:27:28.670Z,16.10
2019-05-29T21:29:59.801Z,16.10
2019-05-29T21:32:31.029Z,16.00
2019-05-29T21:35:02.439Z,16.00
2019-05-29T21:37:33.895Z,16.00
2019-05-29T21:40:05.499Z,16.00
2019-05-29T21:42:36.739Z,15.80
2019-05-29T21:45:08.325Z,15.80
2019-05-29T21:47:39.287Z,15.80
2019-05-29T21:50:10.745Z,15.80
2019-05-29T21:52:41.923Z,15.70
2019-05-29T21:55:13.689Z,15.60
2019-05-29T21:57:48.006Z,15.60
2019-05-29T22:00:24.174Z,15.50
2019-05-29T22:02:55.459Z,15.50
2019-05-29T22:05:26.395Z,15.40
2019-05-29T22:07:57.832Z,15.40
2019-05-29T22:10:28.925Z,15.40
2019-05-29T22:13:00.656Z,15.30
2019-05-29T22:15:31.960Z,15.30
2019-05-29T22:18:03.330Z,15.30
2019-05-29T22:20:34.665Z,15.20
2019-05-29T22:23:06.015Z,15.20
2019-05-29T22:25:37.264Z,15.20
2019-05-29T22:28:08.194Z,15.20
2019-05-29T22:30:39.664Z,15.20
2019-05-29T22:33:11.054Z,15.20
2019-05-29T22:35:42.619Z,15.20
2019-05-29T22:38:13.857Z,15.20
2019-05-29T22:40:45.010Z,15.20
2019-05-29T22:43:16.474Z,15.20
2019-05-29T22:45:47.600Z,15.20
2019-05-29T22:48:18.799Z,15.20
2019-05-29T22:50:50.136Z,15.20
2019-05-29T22:53:21.264Z,15.10
2019-05-29T22:55:53.615Z,15.10
2019-05-29T22:58:24.894Z,15.10
2019-05-29T23:00:56.099Z,15.10
2019-05-29T23:03:27.414Z,15.10
2019-05-29T23:05:58.899Z,15.20
2019-05-29T23:08:30.029Z,15.10
2019-05-29T23:11:00.984Z,15.20
2019-05-29T23:13:32.569Z,15.20
2019-05-29T23:16:03.710Z,15.20
2019-05-29T23:18:35.087Z,15.20
2019-05-29T23:21:06.004Z,15.20
2019-05-29T23:23:36.949Z,15.20
2019-05-29T23:26:08.473Z,15.10
2019-05-29T23:28:39.970Z,15.10
2019-05-29T23:31:11.407Z,15.00
2019-05-29T23:33:42.529Z,15.10
2019-05-29T23:36:13.875Z,15.10
2019-05-29T23:38:45.085Z,15.10
2019-05-29T23:41:15.820Z,15.10
2019-05-29T23:43:47.069Z,15.00
2019-05-29T23:46:18.084Z,15.10
2019-05-29T23:48:49.593Z,15.00
2019-05-29T23:51:20.528Z,15.00
2019-05-29T23:53:51.854Z,15.00
2019-05-29T23:56:23.003Z,15.00
2019-05-29T23:58:54.204Z,14.90
